Time;durP1;ratioP1;P1;durP2;ratioP2;P2;SDS_P1;SDS_P2;PMS_P1;PMS_P2;Temp;Humidity;BMP_temperature;BMP_pressure;BME280_temperature;BME280_humidity;BME280_pressure;Samples;Min_cycle;Max_cycle;Signal;HPM_P1;HPM_P2
2021/07/05 05:02:48;;;;;;;6.43;5.13;;;;;;;;;;4943550;29;20222;-68
2021/07/05 05:05:34;;;;;;;6.50;5.27;;;;;;;;;;4935553;29;20289;-68
2021/07/05 05:08:19;;;;;;;7.13;5.60;;;;;;;;;;4943264;29;20225;-70
2021/07/05 05:11:04;;;;;;;10.07;5.60;;;;;;;;;;4945965;29;20240;-71
2021/07/05 05:13:49;;;;;;;9.37;5.70;;;;;;;;;;4935812;29;20214;-70
2021/07/05 05:16:34;;;;;;;9.47;5.80;;;;;;;;;;4935840;29;20297;-69
2021/07/05 05:19:21;;;;;;;6.60;5.70;;;;;;;;;;4935765;29;20209;-70
2021/07/05 05:22:08;;;;;;;7.37;5.80;;;;;;;;;;4935759;29;20228;-70
2021/07/05 05:24:52;;;;;;;9.90;6.27;;;;;;;;;;4927252;29;20214;-69
2021/07/05 05:27:37;;;;;;;11.10;6.53;;;;;;;;;;4920436;29;20205;-69
2021/07/05 05:30:23;;;;;;;9.88;7.50;;;;;;;;;;4925682;29;20438;-69
2021/07/05 05:33:08;;;;;;;7.23;6.50;;;;;;;;;;4924268;29;20217;-68
2021/07/05 05:35:55;;;;;;;8.87;5.90;;;;;;;;;;4934148;29;20214;-69
2021/07/05 05:38:45;;;;;;;8.87;6.63;;;;;;;;;;4915563;29;20243;-68
2021/07/05 05:41:30;;;;;;;8.80;6.07;;;;;;;;;;4915765;29;20245;-68
2021/07/05 05:44:15;;;;;;;10.63;6.00;;;;;;;;;;4920622;29;20213;-71
2021/07/05 05:47:00;;;;;;;7.13;6.23;;;;;;;;;;4922501;29;20210;-68
2021/07/05 05:49:45;;;;;;;11.30;6.60;;;;;;;;;;4924249;29;20293;-70
2021/07/05 05:52:32;;;;;;;10.00;6.60;;;;;;;;;;4915982;29;20233;-70
2021/07/05 05:55:17;;;;;;;13.97;7.30;;;;;;;;;;4916161;29;20209;-70
2021/07/05 05:58:02;;;;;;;10.43;7.50;;;;;;;;;;4915679;29;20295;-69
2021/07/05 06:00:47;;;;;;;8.07;7.20;;;;;;;;;;4921168;29;20233;-69
2021/07/05 06:03:32;;;;;;;11.40;8.20;;;;;;;;;;4934366;29;20205;-70
2021/07/05 06:06:16;;;;;;;12.03;8.10;;;;;;;;;;4934942;29;20300;-69
2021/07/05 06:09:03;;;;;;;9.07;7.27;;;;;;;;;;4934996;29;20329;-69
2021/07/05 06:11:48;;;;;;;11.87;8.67;;;;;;;;;;4934842;29;20233;-68
2021/07/05 06:14:33;;;;;;;10.77;8.20;;;;;;;;;;4934106;29;20296;-69
2021/07/05 06:17:18;;;;;;;9.77;8.77;;;;;;;;;;4934838;29;20241;-69
2021/07/05 06:20:03;;;;;;;11.10;8.47;;;;;;;;;;4934306;29;20220;-69
2021/07/05 06:22:50;;;;;;;11.33;8.03;;;;;;;;;;4933972;29;20349;-69
2021/07/05 06:25:37;;;;;;;13.85;10.07;;;;;;;;;;4934361;29;20797;-69
2021/07/05 06:28:23;;;;;;;13.97;9.60;;;;;;;;;;4934599;29;20217;-69
2021/07/05 06:31:08;;;;;;;12.87;9.00;;;;;;;;;;4934540;29;20229;-70
2021/07/05 06:33:53;;;;;;;12.43;9.17;;;;;;;;;;4933641;29;20317;-69
2021/07/05 06:36:38;;;;;;;13.33;9.43;;;;;;;;;;4934466;29;20306;-69
2021/07/05 06:39:23;;;;;;;12.37;9.27;;;;;;;;;;4934532;29;20225;-69
2021/07/05 06:42:09;;;;;;;12.73;9.63;;;;;;;;;;4933963;29;20435;-70
2021/07/05 06:44:55;;;;;;;12.83;8.67;;;;;;;;;;4915583;29;20217;-69
2021/07/05 06:47:39;;;;;;;12.37;8.80;;;;;;;;;;4932403;29;20791;-69
2021/07/05 06:50:25;;;;;;;10.33;8.70;;;;;;;;;;4929432;29;20209;-70
2021/07/05 06:53:10;;;;;;;14.47;9.10;;;;;;;;;;4927999;29;20213;-69
2021/07/05 06:55:55;;;;;;;9.60;8.40;;;;;;;;;;4931454;29;20818;-69
2021/07/05 06:58:42;;;;;;;13.33;9.30;;;;;;;;;;4933598;29;20225;-68
2021/07/05 07:01:26;;;;;;;10.17;8.60;;;;;;;;;;4933600;29;20285;-70
2021/07/05 07:04:11;;;;;;;14.67;9.03;;;;;;;;;;4932595;29;20217;-69
2021/07/05 07:06:58;;;;;;;10.53;9.43;;;;;;;;;;4933480;29;20301;-69
2021/07/05 07:09:43;;;;;;;12.33;8.93;;;;;;;;;;4933447;29;20623;-69
2021/07/05 07:12:28;;;;;;;13.07;9.53;;;;;;;;;;4932593;29;20728;-68
2021/07/05 07:15:15;;;;;;;11.60;9.40;;;;;;;;;;4933310;29;20601;-70
2021/07/05 07:18:06;;;;;;;11.97;10.37;;;;;;;;;;4932731;29;20644;-68
2021/07/05 07:20:51;;;;;;;10.57;9.40;;;;;;;;;;4933388;29;20713;-69
2021/07/05 07:23:36;;;;;;;11.73;9.80;;;;;;;;;;4931373;29;20538;-69
2021/07/05 07:26:21;;;;;;;12.97;9.33;;;;;;;;;;4914575;29;20222;-69
2021/07/05 07:29:06;;;;;;;14.57;10.83;;;;;;;;;;4932994;29;20201;-68
2021/07/05 07:31:53;;;;;;;11.90;8.97;;;;;;;;;;4932539;29;20229;-68
2021/07/05 07:34:39;;;;;;;11.73;8.40;;;;;;;;;;4931493;29;20205;-69
2021/07/05 07:37:24;;;;;;;11.07;7.97;;;;;;;;;;4932391;29;20224;-69
2021/07/05 07:40:15;;;;;;;11.87;8.30;;;;;;;;;;4933128;29;20295;-69
2021/07/05 07:43:00;;;;;;;9.13;7.80;;;;;;;;;;4932245;29;20205;-69
2021/07/05 07:45:45;;;;;;;13.40;8.60;;;;;;;;;;4932722;29;20333;-69
2021/07/05 07:48:31;;;;;;;9.67;7.57;;;;;;;;;;4914307;29;20229;-69
2021/07/05 07:51:16;;;;;;;8.20;7.30;;;;;;;;;;4928565;29;20292;-69
2021/07/05 07:54:01;;;;;;;11.87;8.07;;;;;;;;;;4925233;29;20772;-69
2021/07/05 07:56:46;;;;;;;11.77;8.07;;;;;;;;;;4933049;29;20233;-68
2021/07/05 07:59:31;;;;;;;9.20;7.40;;;;;;;;;;4932965;29;20217;-69
2021/07/05 08:02:17;;;;;;;8.67;7.03;;;;;;;;;;4931771;29;20245;-69
2021/07/05 08:05:04;;;;;;;9.60;7.33;;;;;;;;;;4933716;29;20209;-68
2021/07/05 08:07:49;;;;;;;9.63;7.73;;;;;;;;;;4933097;29;20686;-68
2021/07/05 08:10:33;;;;;;;9.73;7.53;;;;;;;;;;4933294;29;20228;-68
2021/07/05 08:13:18;;;;;;;12.57;8.13;;;;;;;;;;4929805;29;20209;-68
2021/07/05 08:16:03;;;;;;;10.97;7.87;;;;;;;;;;4933117;29;20217;-68
2021/07/05 08:18:49;;;;;;;11.10;7.37;;;;;;;;;;4933063;29;20328;-69
2021/07/05 08:21:37;;;;;;;10.07;8.60;;;;;;;;;;4922270;29;20422;-68
2021/07/05 08:24:22;;;;;;;10.70;7.93;;;;;;;;;;4931386;29;20210;-70
2021/07/05 08:27:07;;;;;;;10.63;6.73;;;;;;;;;;4931777;29;20194;-67
2021/07/05 08:29:53;;;;;;;14.10;6.70;;;;;;;;;;4933006;29;20209;-69
2021/07/05 08:32:38;;;;;;;9.43;6.67;;;;;;;;;;4932758;29;20241;-70
2021/07/05 08:35:23;;;;;;;8.07;6.10;;;;;;;;;;4933236;29;20210;-69
2021/07/05 08:38:10;;;;;;;7.63;6.53;;;;;;;;;;4932995;29;20605;-69
2021/07/05 08:40:55;;;;;;;8.67;6.00;;;;;;;;;;4932773;29;20275;-69
2021/07/05 08:43:41;;;;;;;11.27;6.17;;;;;;;;;;4933923;29;20211;-69
2021/07/05 08:46:27;;;;;;;11.53;8.20;;;;;;;;;;4936297;29;20693;-69
2021/07/05 08:49:12;;;;;;;6.97;6.27;;;;;;;;;;4935996;29;20215;-70
2021/07/05 08:51:57;;;;;;;9.43;6.20;;;;;;;;;;4935901;29;20236;-69
2021/07/05 08:54:43;;;;;;;9.87;6.47;;;;;;;;;;4935581;29;20220;-70
2021/07/05 08:57:30;;;;;;;8.40;5.90;;;;;;;;;;4935711;29;20289;-69
2021/07/05 09:00:16;;;;;;;9.77;6.00;;;;;;;;;;4935939;29;20744;-70
2021/07/05 09:03:02;;;;;;;8.97;6.40;;;;;;;;;;4935270;29;20701;-70
2021/07/05 09:06:06;;;;;;;8.43;6.17;;;;;;;;;;4935667;29;20345;-69
2021/07/05 09:09:06;;;;;;;7.80;4.93;;;;;;;;;;4935444;29;20356;-68
2021/07/05 09:11:53;;;;;;;6.87;5.67;;;;;;;;;;4935063;29;20225;-69
2021/07/05 09:14:38;;;;;;;9.87;5.90;;;;;;;;;;4932598;29;20265;-67
2021/07/05 09:17:32;;;;;;;9.07;6.40;;;;;;;;;;4930062;29;20442;-69
2021/07/05 09:20:20;;;;;;;8.50;6.07;;;;;;;;;;4927123;29;20289;-69
2021/07/05 09:23:09;;;;;;;6.97;5.23;;;;;;;;;;4933950;29;20213;-67
2021/07/05 09:25:54;;;;;;;9.33;5.93;;;;;;;;;;4935324;29;20250;-70
2021/07/05 09:28:40;;;;;;;8.17;5.27;;;;;;;;;;4934984;29;20288;-68
2021/07/05 09:31:43;;;;;;;10.07;5.53;;;;;;;;;;4932532;29;20241;-68
2021/07/05 09:34:30;;;;;;;6.00;5.40;;;;;;;;;;4933135;29;20293;-68
2021/07/05 09:37:19;;;;;;;7.30;6.17;;;;;;;;;;4933308;29;20217;-67
2021/07/05 09:40:10;;;;;;;7.10;5.67;;;;;;;;;;4927275;29;20222;-68
2021/07/05 09:42:55;;;;;;;7.57;5.47;;;;;;;;;;4928888;29;20217;-69
2021/07/05 09:45:41;;;;;;;5.60;4.90;;;;;;;;;;4935111;29;20578;-70
2021/07/05 09:48:26;;;;;;;8.63;5.40;;;;;;;;;;4929141;29;20213;-69
2021/07/05 09:51:14;;;;;;;7.03;6.10;;;;;;;;;;4916422;29;20612;-69
2021/07/05 09:53:59;;;;;;;8.33;5.70;;;;;;;;;;4919885;29;20208;-69
2021/07/05 09:56:45;;;;;;;9.13;5.70;;;;;;;;;;4929872;29;20698;-69
2021/07/05 09:59:30;;;;;;;7.73;6.03;;;;;;;;;;4934946;29;20319;-69
2021/07/05 10:02:16;;;;;;;9.00;6.17;;;;;;;;;;4934942;29;20606;-68
2021/07/05 10:05:09;;;;;;;9.33;5.67;;;;;;;;;;4934821;29;20197;-69
2021/07/05 10:07:58;;;;;;;7.00;6.20;;;;;;;;;;4935219;29;20720;-69
2021/07/05 10:10:43;;;;;;;8.70;5.80;;;;;;;;;;4932584;29;20734;-69
2021/07/05 10:13:28;;;;;;;8.85;6.07;;;;;;;;;;4930788;29;20904;-69
2021/07/05 10:16:13;;;;;;;6.93;5.37;;;;;;;;;;4932705;29;20292;-70
2021/07/05 10:19:00;;;;;;;7.33;5.47;;;;;;;;;;4931944;29;20225;-69
2021/07/05 10:21:44;;;;;;;9.43;5.40;;;;;;;;;;4932425;29;20245;-69
2021/07/05 10:24:30;;;;;;;10.10;5.70;;;;;;;;;;4931481;29;20201;-69
2021/07/05 10:27:15;;;;;;;7.33;4.70;;;;;;;;;;4931271;29;20257;-68
2021/07/05 10:30:02;;;;;;;7.40;4.40;;;;;;;;;;4932418;29;20202;-69
2021/07/05 10:32:48;;;;;;;7.13;4.10;;;;;;;;;;4931939;29;20233;-69
2021/07/05 10:35:36;;;;;;;10.83;4.77;;;;;;;;;;4932314;29;20243;-69
2021/07/05 10:38:22;;;;;;;5.93;4.37;;;;;;;;;;4932342;29;20217;-70
2021/07/05 10:41:08;;;;;;;8.27;4.60;;;;;;;;;;4932441;29;20717;-69
2021/07/05 10:43:55;;;;;;;6.53;4.40;;;;;;;;;;4931408;29;20217;-67
2021/07/05 10:46:42;;;;;;;6.57;4.10;;;;;;;;;;4931301;29;20230;-70
2021/07/05 10:49:46;;;;;;;6.40;3.93;;;;;;;;;;4931964;29;20680;-70
2021/07/05 10:52:48;;;;;;;6.57;4.00;;;;;;;;;;4931698;29;20229;-67
2021/07/05 10:55:37;;;;;;;6.70;3.53;;;;;;;;;;4929674;29;20269;-69
2021/07/05 10:58:26;;;;;;;5.40;4.00;;;;;;;;;;4929405;29;20277;-70
2021/07/05 11:01:13;;;;;;;5.93;4.00;;;;;;;;;;4929509;29;20317;-69
2021/07/05 11:04:16;;;;;;;6.53;4.00;;;;;;;;;;4930848;29;20209;-71
2021/07/05 11:07:11;;;;;;;5.47;3.30;;;;;;;;;;4930462;29;20209;-69
2021/07/05 11:09:58;;;;;;;7.10;4.35;;;;;;;;;;4930298;29;20474;-68
2021/07/05 11:12:55;;;;;;;5.50;3.83;;;;;;;;;;4930218;29;20229;-69
2021/07/05 11:15:47;;;;;;;6.73;3.80;;;;;;;;;;4929377;29;20680;-69
2021/07/05 11:19:05;;;;;;;6.33;3.93;;;;;;;;;;4930145;29;20914;-68
2021/07/05 11:21:59;;;;;;;7.30;5.10;;;;;;;;;;4930039;29;20300;-66
2021/07/05 11:24:46;;;;;;;5.20;4.70;;;;;;;;;;4925910;29;20221;-69
2021/07/05 11:27:49;;;;;;;6.17;4.70;;;;;;;;;;4931393;29;20229;-68
2021/07/05 11:30:35;;;;;;;6.80;5.00;;;;;;;;;;4931435;29;20639;-69
2021/07/05 11:33:25;;;;;;;6.37;5.13;;;;;;;;;;4930156;29;20209;-69
2021/07/05 11:36:20;;;;;;;5.30;4.80;;;;;;;;;;4931256;29;20205;-68
2021/07/05 11:39:06;;;;;;;4.53;3.70;;;;;;;;;;4930354;29;20237;-69
2021/07/05 11:41:50;;;;;;;4.40;4.00;;;;;;;;;;4931326;29;20584;-69
2021/07/05 11:44:47;;;;;;;6.87;5.40;;;;;;;;;;4931521;29;20221;-69
2021/07/05 11:47:42;;;;;;;6.78;6.10;;;;;;;;;;4928610;29;20422;-67
2021/07/05 11:50:31;;;;;;;6.57;5.97;;;;;;;;;;4930978;29;20206;-68
2021/07/05 11:53:17;;;;;;;7.03;6.23;;;;;;;;;;4928919;29;20206;-68
2021/07/05 11:56:02;;;;;;;6.40;5.70;;;;;;;;;;4931031;29;20755;-69
2021/07/05 11:58:48;;;;;;;9.00;6.73;;;;;;;;;;4929068;29;20217;-69
2021/07/05 12:01:35;;;;;;;9.43;6.63;;;;;;;;;;4930937;29;20256;-68
2021/07/05 12:04:26;;;;;;;7.70;6.23;;;;;;;;;;4928956;29;20201;-68
2021/07/05 12:07:13;;;;;;;8.43;7.53;;;;;;;;;;4929082;29;20558;-68
2021/07/05 12:09:58;;;;;;;7.57;6.20;;;;;;;;;;4929563;29;20212;-68
2021/07/05 12:12:43;;;;;;;6.33;5.73;;;;;;;;;;4932415;29;20726;-68
2021/07/05 12:15:28;;;;;;;5.60;5.10;;;;;;;;;;4930688;29;20213;-67
2021/07/05 12:18:17;;;;;;;4.60;4.20;;;;;;;;;;4924982;29;20217;-68
2021/07/05 12:21:03;;;;;;;4.63;4.23;;;;;;;;;;4936277;29;20780;-68
2021/07/05 12:23:48;;;;;;;3.80;3.50;;;;;;;;;;4936120;29;20718;-68
2021/07/05 12:26:40;;;;;;;4.20;3.60;;;;;;;;;;4936555;29;20252;-67
2021/07/05 12:29:27;;;;;;;3.10;2.90;;;;;;;;;;4934612;29;20214;-68
2021/07/05 12:32:14;;;;;;;4.57;2.80;;;;;;;;;;4936391;29;20312;-68
2021/07/05 12:35:01;;;;;;;3.10;2.87;;;;;;;;;;4917833;29;20245;-70
2021/07/05 12:37:46;;;;;;;3.43;3.13;;;;;;;;;;4917721;29;20281;-68
2021/07/05 12:40:32;;;;;;;4.83;3.60;;;;;;;;;;4929311;29;20233;-68
2021/07/05 12:43:16;;;;;;;5.07;3.63;;;;;;;;;;4935663;29;20295;-68
2021/07/05 12:46:01;;;;;;;4.87;3.53;;;;;;;;;;4935670;29;20226;-68
2021/07/05 12:48:46;;;;;;;4.13;3.50;;;;;;;;;;4930744;29;20703;-70
2021/07/05 12:51:33;;;;;;;3.70;3.40;;;;;;;;;;4935426;29;20277;-68
2021/07/05 12:54:18;;;;;;;4.40;3.30;;;;;;;;;;4934646;29;20228;-68
2021/07/05 12:57:06;;;;;;;3.30;3.00;;;;;;;;;;4934384;29;20341;-67
2021/07/05 13:00:02;;;;;;;3.63;2.80;;;;;;;;;;4935411;29;20224;-65
2021/07/05 13:02:47;;;;;;;3.85;2.80;;;;;;;;;;4934190;29;20410;-68
2021/07/05 13:05:32;;;;;;;2.80;2.60;;;;;;;;;;4936083;29;20217;-69
2021/07/05 13:08:28;;;;;;;4.20;2.60;;;;;;;;;;4935966;29;20214;-68
2021/07/05 13:11:14;;;;;;;2.63;1.80;;;;;;;;;;4935738;29;20223;-68
2021/07/05 13:14:03;;;;;;;2.10;1.70;;;;;;;;;;4934932;29;20206;-68
2021/07/05 13:16:48;;;;;;;3.10;1.63;;;;;;;;;;4935736;29;20209;-70
2021/07/05 13:19:33;;;;;;;1.87;1.53;;;;;;;;;;4935673;29;20229;-69
2021/07/05 13:22:20;;;;;;;1.60;1.50;;;;;;;;;;4935394;29;20731;-69
2021/07/05 13:25:13;;;;;;;2.53;1.33;;;;;;;;;;4935793;29;20756;-68
2021/07/05 13:28:11;;;;;;;2.30;1.30;;;;;;;;;;4935513;29;20345;-68
2021/07/05 13:30:56;;;;;;;1.87;1.30;;;;;;;;;;4935140;29;20303;-68
2021/07/05 13:33:40;;;;;;;2.50;1.37;;;;;;;;;;4934904;29;20209;-68
2021/07/05 13:36:25;;;;;;;1.53;1.40;;;;;;;;;;4935411;29;20583;-68
2021/07/05 13:39:12;;;;;;;1.77;1.40;;;;;;;;;;4935085;29;20223;-69
2021/07/05 13:42:07;;;;;;;2.67;1.40;;;;;;;;;;4935263;29;20233;-69
2021/07/05 13:44:53;;;;;;;2.73;1.60;;;;;;;;;;4934970;29;20340;-68
2021/07/05 13:47:45;;;;;;;1.83;1.50;;;;;;;;;;4935085;29;20210;-69
2021/07/05 13:50:34;;;;;;;2.37;1.70;;;;;;;;;;4934841;29;20210;-69
2021/07/05 13:53:22;;;;;;;1.70;1.60;;;;;;;;;;4934438;29;20679;-68
2021/07/05 13:56:09;;;;;;;3.23;1.63;;;;;;;;;;4935007;29;20587;-68
2021/07/05 13:58:56;;;;;;;2.90;1.75;;;;;;;;;;4934254;29;20939;-69
2021/07/05 14:01:41;;;;;;;2.23;1.60;;;;;;;;;;4934524;29;20277;-68
2021/07/05 14:04:26;;;;;;;2.40;1.60;;;;;;;;;;4932952;29;20216;-69
2021/07/05 14:07:11;;;;;;;1.57;1.47;;;;;;;;;;4915942;29;20605;-69
2021/07/05 14:09:56;;;;;;;2.10;1.90;;;;;;;;;;4926459;29;20594;-68
2021/07/05 14:12:41;;;;;;;2.93;2.10;;;;;;;;;;4934007;29;20310;-69
2021/07/05 14:15:27;;;;;;;3.20;1.80;;;;;;;;;;4934636;29;20223;-69
2021/07/05 14:18:12;;;;;;;2.23;2.03;;;;;;;;;;4934564;29;20209;-70
2021/07/05 14:20:57;;;;;;;3.00;1.73;;;;;;;;;;4934277;29;20651;-69
2021/07/05 14:23:43;;;;;;;2.40;2.20;;;;;;;;;;4933851;29;20207;-70
2021/07/05 14:26:28;;;;;;;4.33;2.00;;;;;;;;;;4934568;29;20229;-70
2021/07/05 14:29:13;;;;;;;3.03;2.20;;;;;;;;;;4934413;29;20213;-70
2021/07/05 14:31:59;;;;;;;3.10;2.07;;;;;;;;;;4934330;29;20261;-70
2021/07/05 14:34:44;;;;;;;3.13;2.15;;;;;;;;;;4933414;29;20418;-69
2021/07/05 14:37:29;;;;;;;2.90;2.33;;;;;;;;;;4934158;29;20300;-69
2021/07/05 14:40:14;;;;;;;4.13;2.60;;;;;;;;;;4933984;29;20320;-70
2021/07/05 14:42:59;;;;;;;6.43;5.80;;;;;;;;;;4933629;29;20300;-69
2021/07/05 14:45:44;;;;;;;2.97;2.30;;;;;;;;;;4934340;29;20341;-69
2021/07/05 14:48:31;;;;;;;2.50;2.30;;;;;;;;;;4932519;29;20816;-70
2021/07/05 14:51:15;;;;;;;4.47;2.30;;;;;;;;;;4934081;29;20235;-69
2021/07/05 14:54:00;;;;;;;2.17;1.97;;;;;;;;;;4915216;29;20218;-69
2021/07/05 14:56:45;;;;;;;3.10;2.30;;;;;;;;;;4913663;29;20418;-69
2021/07/05 14:59:30;;;;;;;2.83;2.27;;;;;;;;;;4914651;29;20242;-70
2021/07/05 15:02:15;;;;;;;2.43;2.23;;;;;;;;;;4915000;29;20249;-69
2021/07/05 15:05:02;;;;;;;4.97;2.83;;;;;;;;;;4923591;29;20228;-69
2021/07/05 15:07:46;;;;;;;4.17;3.00;;;;;;;;;;4933831;29;20257;-69
2021/07/05 15:10:31;;;;;;;2.70;2.50;;;;;;;;;;4933674;29;20209;-69
2021/07/05 15:13:16;;;;;;;3.47;2.60;;;;;;;;;;4932848;29;20246;-69
2021/07/05 15:16:01;;;;;;;3.13;2.53;;;;;;;;;;4933867;29;20322;-69
2021/07/05 15:18:46;;;;;;;3.73;2.43;;;;;;;;;;4933426;29;20210;-68
2021/07/05 15:21:33;;;;;;;3.87;2.70;;;;;;;;;;4933152;29;20237;-68
2021/07/05 15:24:19;;;;;;;4.13;2.73;;;;;;;;;;4932912;29;20217;-68
2021/07/05 15:27:04;;;;;;;3.13;2.80;;;;;;;;;;4938282;29;20212;-69
2021/07/05 15:29:49;;;;;;;3.40;3.17;;;;;;;;;;4947984;29;20276;-70
2021/07/05 15:32:34;;;;;;;3.43;3.13;;;;;;;;;;4951923;28;20729;-67
2021/07/05 15:35:19;;;;;;;3.43;3.13;;;;;;;;;;4950829;29;20200;-69
2021/07/05 15:38:05;;;;;;;3.90;3.60;;;;;;;;;;4933454;29;20710;-69
2021/07/05 15:40:53;;;;;;;5.40;4.20;;;;;;;;;;4933019;29;20357;-68
2021/07/05 15:43:37;;;;;;;5.83;3.80;;;;;;;;;;4932572;29;20262;-69
2021/07/05 15:46:22;;;;;;;4.50;3.40;;;;;;;;;;4933384;29;20217;-67
2021/07/05 15:49:07;;;;;;;6.30;4.20;;;;;;;;;;4933277;29;20217;-69
2021/07/05 15:51:52;;;;;;;4.90;4.10;;;;;;;;;;4937390;28;20277;-68
2021/07/05 15:54:39;;;;;;;5.00;4.50;;;;;;;;;;4935870;29;20726;-70
2021/07/05 15:57:24;;;;;;;4.43;3.70;;;;;;;;;;4937114;29;20209;-69
2021/07/05 16:00:10;;;;;;;4.53;4.03;;;;;;;;;;4936803;29;20456;-70
2021/07/05 16:02:55;;;;;;;4.07;3.63;;;;;;;;;;4936241;29;20201;-68
2021/07/05 16:05:40;;;;;;;5.60;3.97;;;;;;;;;;4936743;29;20695;-70
2021/07/05 16:08:25;;;;;;;4.53;3.80;;;;;;;;;;4936733;29;20209;-69
2021/07/05 16:11:11;;;;;;;4.47;3.73;;;;;;;;;;4936766;29;20308;-69
2021/07/05 16:13:57;;;;;;;6.07;3.77;;;;;;;;;;4936021;29;20221;-68
2021/07/05 16:16:42;;;;;;;4.50;3.67;;;;;;;;;;4936953;29;20209;-69
2021/07/05 16:19:27;;;;;;;4.27;3.60;;;;;;;;;;4937054;29;20713;-69
2021/07/05 16:22:12;;;;;;;4.00;3.50;;;;;;;;;;4937045;29;20234;-69
2021/07/05 16:24:57;;;;;;;4.97;3.80;;;;;;;;;;4936633;29;20214;-68
2021/07/05 16:27:43;;;;;;;4.43;4.03;;;;;;;;;;4936897;29;20222;-69
2021/07/05 16:30:30;;;;;;;4.93;4.27;;;;;;;;;;4936858;29;20677;-68
2021/07/05 16:33:15;;;;;;;5.17;4.57;;;;;;;;;;4936152;29;20209;-68
2021/07/05 16:36:00;;;;;;;6.10;3.90;;;;;;;;;;4936650;29;20209;-69
2021/07/05 16:38:45;;;;;;;5.20;3.80;;;;;;;;;;4936161;29;20209;-69
2021/07/05 16:41:29;;;;;;;4.27;3.17;;;;;;;;;;4935558;29;20232;-71
2021/07/05 16:44:16;;;;;;;6.77;4.00;;;;;;;;;;4917089;29;20573;-70
2021/07/05 16:47:01;;;;;;;5.80;3.73;;;;;;;;;;4923475;29;20354;-70
2021/07/05 16:49:46;;;;;;;5.63;3.50;;;;;;;;;;4936082;29;20428;-69
2021/07/05 16:52:32;;;;;;;3.87;3.53;;;;;;;;;;4936148;29;20265;-70
2021/07/05 16:55:18;;;;;;;4.23;3.80;;;;;;;;;;4936000;29;20213;-70
2021/07/05 16:58:03;;;;;;;4.27;3.60;;;;;;;;;;4932988;29;20212;-70
2021/07/05 17:00:50;;;;;;;5.23;3.50;;;;;;;;;;4936089;29;20741;-70
2021/07/05 17:03:37;;;;;;;4.13;3.73;;;;;;;;;;4934795;29;20419;-68
2021/07/05 17:06:22;;;;;;;4.63;3.00;;;;;;;;;;4936130;29;20204;-68
2021/07/05 17:09:06;;;;;;;3.53;3.23;;;;;;;;;;4935656;29;20222;-67
2021/07/05 17:11:51;;;;;;;3.07;2.77;;;;;;;;;;4935845;29;20300;-68
2021/07/05 17:14:37;;;;;;;3.83;3.07;;;;;;;;;;4935312;29;20449;-69
2021/07/05 17:17:23;;;;;;;4.30;2.57;;;;;;;;;;4935349;29;20293;-68
2021/07/05 17:20:08;;;;;;;3.23;2.73;;;;;;;;;;4925648;29;20209;-68
2021/07/05 17:22:53;;;;;;;4.07;2.77;;;;;;;;;;4934512;29;20299;-70
2021/07/05 17:25:38;;;;;;;2.50;2.30;;;;;;;;;;4935403;29;20222;-69
2021/07/05 17:28:23;;;;;;;3.37;2.80;;;;;;;;;;4934971;29;20338;-70
2021/07/05 17:31:08;;;;;;;4.00;2.80;;;;;;;;;;4934662;29;20229;-70
2021/07/05 17:33:55;;;;;;;3.97;3.13;;;;;;;;;;4934632;29;20354;-69
2021/07/05 17:36:40;;;;;;;3.10;2.80;;;;;;;;;;4934761;29;20341;-70
2021/07/05 17:39:25;;;;;;;3.50;2.60;;;;;;;;;;4934991;29;20217;-68
2021/07/05 17:42:10;;;;;;;4.87;3.10;;;;;;;;;;4934288;29;20379;-68
2021/07/05 17:44:55;;;;;;;4.25;3.40;;;;;;;;;;4932341;29;20921;-68
2021/07/05 17:47:40;;;;;;;3.53;3.20;;;;;;;;;;4934333;29;20734;-69
2021/07/05 17:50:27;;;;;;;4.03;3.30;;;;;;;;;;4934922;29;20213;-70
2021/07/05 17:53:12;;;;;;;3.30;3.00;;;;;;;;;;4933769;29;20418;-69
2021/07/05 17:55:57;;;;;;;3.40;3.10;;;;;;;;;;4934667;29;20279;-70
2021/07/05 17:58:42;;;;;;;4.40;2.80;;;;;;;;;;4934442;29;20217;-70
2021/07/05 18:01:27;;;;;;;5.07;2.97;;;;;;;;;;4927502;29;20834;-69
2021/07/05 18:04:12;;;;;;;3.03;2.73;;;;;;;;;;4934127;29;20209;-71
2021/07/05 18:06:59;;;;;;;3.10;2.80;;;;;;;;;;4934685;29;20255;-70
2021/07/05 18:09:44;;;;;;;3.10;2.80;;;;;;;;;;4926249;29;20312;-67
2021/07/05 18:12:29;;;;;;;2.47;2.27;;;;;;;;;;4934042;29;20253;-70
2021/07/05 18:15:17;;;;;;;2.90;2.60;;;;;;;;;;4933818;29;20308;-70
2021/07/05 18:18:03;;;;;;;2.73;2.50;;;;;;;;;;4934497;29;20216;-70
2021/07/05 18:20:50;;;;;;;3.03;2.65;;;;;;;;;;4933546;29;20447;-70
2021/07/05 18:23:36;;;;;;;4.00;2.70;;;;;;;;;;4933621;29;20205;-71
2021/07/05 18:26:22;;;;;;;2.93;2.30;;;;;;;;;;4934233;29;20212;-71
2021/07/05 18:29:07;;;;;;;2.40;2.30;;;;;;;;;;4934190;29;20305;-71
2021/07/05 18:31:53;;;;;;;2.40;2.30;;;;;;;;;;4934295;29;20283;-69
2021/07/05 18:34:38;;;;;;;2.03;1.93;;;;;;;;;;4933832;29;20292;-70
2021/07/05 18:37:23;;;;;;;2.10;1.90;;;;;;;;;;4933454;29;20210;-70
2021/07/05 18:40:10;;;;;;;2.10;2.00;;;;;;;;;;4934077;29;20221;-71
2021/07/05 18:42:55;;;;;;;2.13;2.00;;;;;;;;;;4932431;29;20425;-70
2021/07/05 18:45:41;;;;;;;2.17;1.83;;;;;;;;;;4933950;29;20698;-70
2021/07/05 18:48:27;;;;;;;1.77;1.67;;;;;;;;;;4933633;29;20216;-69
2021/07/05 18:51:12;;;;;;;2.00;1.90;;;;;;;;;;4933386;29;20734;-71
2021/07/05 18:53:57;;;;;;;1.77;1.67;;;;;;;;;;4914195;29;20226;-69
2021/07/05 18:56:43;;;;;;;1.80;1.70;;;;;;;;;;4914861;29;20213;-67
2021/07/05 18:59:28;;;;;;;2.53;1.83;;;;;;;;;;4933142;29;20208;-69
2021/07/05 19:02:13;;;;;;;2.10;1.67;;;;;;;;;;4932777;29;20240;-69
2021/07/05 19:05:00;;;;;;;1.70;1.60;;;;;;;;;;4933553;29;20713;-70
2021/07/05 19:07:47;;;;;;;1.70;1.60;;;;;;;;;;4933235;29;20209;-69
2021/07/05 19:10:32;;;;;;;2.23;2.00;;;;;;;;;;4933210;29;20273;-68
2021/07/05 19:13:18;;;;;;;3.27;2.30;;;;;;;;;;4929053;29;20466;-70
2021/07/05 19:16:03;;;;;;;2.33;2.23;;;;;;;;;;4914778;29;20210;-69
2021/07/05 19:18:49;;;;;;;3.63;2.30;;;;;;;;;;4914448;29;20210;-68
2021/07/05 19:21:34;;;;;;;2.57;2.47;;;;;;;;;;4932214;29;20229;-67
2021/07/05 19:24:19;;;;;;;2.90;2.60;;;;;;;;;;4932594;29;20205;-70
2021/07/05 19:27:05;;;;;;;3.33;3.10;;;;;;;;;;4933358;29;20695;-70
2021/07/05 19:29:51;;;;;;;3.97;2.90;;;;;;;;;;4932882;29;20212;-69
2021/07/05 19:32:36;;;;;;;4.33;3.63;;;;;;;;;;4931938;29;20232;-70
2021/07/05 19:35:21;;;;;;;5.23;3.50;;;;;;;;;;4933184;29;20334;-71
2021/07/05 19:38:06;;;;;;;4.10;3.43;;;;;;;;;;4933297;29;20631;-70
2021/07/05 19:40:51;;;;;;;4.30;3.90;;;;;;;;;;4931550;29;20469;-68
2021/07/05 19:43:36;;;;;;;4.17;3.77;;;;;;;;;;4932781;29;20212;-70
2021/07/05 19:46:22;;;;;;;4.10;3.70;;;;;;;;;;4932901;29;20216;-71
2021/07/05 19:49:07;;;;;;;3.60;3.30;;;;;;;;;;4932797;29;20376;-70
2021/07/05 19:51:52;;;;;;;3.67;3.37;;;;;;;;;;4932532;29;20581;-70
2021/07/05 19:54:37;;;;;;;5.00;4.03;;;;;;;;;;4932175;29;20213;-71
2021/07/05 19:57:22;;;;;;;5.00;4.20;;;;;;;;;;4933075;29;20269;-71
